createdAt,value
2022-08-17T00:00:52.348Z,19.06
2022-08-17T00:06:10.838Z,18.96
2022-08-17T00:11:34.582Z,18.94
2022-08-17T00:16:56.340Z,18.90
2022-08-17T00:22:34.903Z,18.83
2022-08-17T00:27:37.331Z,18.70
2022-08-17T00:33:14.033Z,18.66
2022-08-17T00:38:24.394Z,18.65
2022-08-17T00:44:01.895Z,18.55
2022-08-17T00:49:24.184Z,18.46
2022-08-17T00:54:42.550Z,18.43
2022-08-17T01:00:03.277Z,18.35
2022-08-17T01:05:16.002Z,18.30
2022-08-17T01:11:00.186Z,18.30
2022-08-17T01:16:28.191Z,18.26
2022-08-17T01:21:50.905Z,18.20
2022-08-17T01:26:57.656Z,18.16
2022-08-17T01:32:16.225Z,18.17
2022-08-17T01:37:32.854Z,18.07
2022-08-17T01:42:49.962Z,17.96
2022-08-17T01:48:02.759Z,17.91
2022-08-17T01:53:23.586Z,17.88
2022-08-17T01:58:41.757Z,17.86
2022-08-17T02:03:59.680Z,17.82
2022-08-17T02:09:07.670Z,17.79
2022-08-17T02:14:37.510Z,17.72
2022-08-17T02:19:50.350Z,17.72
2022-08-17T02:25:02.134Z,17.71
2022-08-17T02:30:59.656Z,17.65
2022-08-17T02:35:43.867Z,17.62
2022-08-17T02:40:52.718Z,17.58
2022-08-17T02:46:09.112Z,17.51
2022-08-17T02:51:23.667Z,17.39
2022-08-17T02:56:48.237Z,-147.53
2022-08-17T03:01:58.868Z,-147.53
2022-08-17T03:07:15.285Z,-147.53
2022-08-17T03:12:22.610Z,-147.53
2022-08-17T03:17:31.390Z,-147.53
2022-08-17T03:22:53.049Z,-147.53
2022-08-17T03:28:00.429Z,-147.53
2022-08-17T03:33:16.742Z,-147.53
2022-08-17T03:38:21.383Z,-147.53
2022-08-17T03:43:37.085Z,-147.53
2022-08-17T03:49:04.169Z,-147.53
2022-08-17T03:54:33.039Z,-147.53
2022-08-17T03:59:35.777Z,-147.53
2022-08-17T04:04:38.336Z,-147.53
2022-08-17T04:09:40.185Z,-147.53
2022-08-17T04:14:53.286Z,-147.53
2022-08-17T04:19:57.186Z,-147.53
2022-08-17T04:24:59.490Z,-147.53
2022-08-17T04:30:01.389Z,-147.53
2022-08-17T04:35:03.029Z,-147.53
2022-08-17T04:40:27.437Z,-147.53
2022-08-17T04:45:32.119Z,-147.53
2022-08-17T04:50:36.497Z,-147.53
2022-08-17T04:55:42.460Z,-147.53
2022-08-17T05:00:44.014Z,-147.53
2022-08-17T05:05:49.693Z,-147.53
2022-08-17T05:10:55.000Z,-147.53
2022-08-17T05:15:59.665Z,-147.53
2022-08-17T05:21:02.884Z,-147.53
2022-08-17T05:26:08.584Z,-147.53
2022-08-17T05:31:13.960Z,-147.53
2022-08-17T05:36:42.397Z,-147.53
2022-08-17T05:41:37.538Z,-147.53
2022-08-17T05:46:43.655Z,-147.53
2022-08-17T05:51:52.314Z,17.83
2022-08-17T05:57:12.601Z,17.85
2022-08-17T06:02:55.849Z,17.91
2022-08-17T06:08:20.690Z,18.03
2022-08-17T06:13:40.544Z,17.97
2022-08-17T06:18:46.596Z,18.00
2022-08-17T06:23:59.442Z,18.02
2022-08-17T06:29:18.753Z,18.09
2022-08-17T06:34:25.938Z,18.34
2022-08-17T06:39:54.721Z,18.50
2022-08-17T06:45:17.547Z,18.57
2022-08-17T06:50:38.254Z,18.67
2022-08-17T06:55:56.381Z,19.85
2022-08-17T07:01:21.772Z,20.87
2022-08-17T07:06:30.524Z,21.25
2022-08-17T07:12:13.056Z,22.05
2022-08-17T07:17:20.894Z,22.58
2022-08-17T07:22:55.217Z,22.96
2022-08-17T07:28:00.483Z,22.31
2022-08-17T07:33:15.743Z,22.06
2022-08-17T07:38:26.823Z,21.81
2022-08-17T07:43:40.326Z,21.82
2022-08-17T07:48:52.713Z,22.31
2022-08-17T07:54:27.848Z,22.21
2022-08-17T08:00:31.994Z,21.95
2022-08-17T08:06:53.259Z,21.76
2022-08-17T08:33:06.255Z,22.09
2022-08-17T08:45:06.931Z,23.53
2022-08-17T08:50:37.429Z,23.65
2022-08-17T08:56:11.716Z,23.69
2022-08-17T09:01:35.083Z,23.96
2022-08-17T09:07:12.711Z,24.50
2022-08-17T09:12:22.664Z,24.86
2022-08-17T09:17:47.405Z,24.96
2022-08-17T09:23:58.306Z,25.36
2022-08-17T09:29:36.629Z,26.37
2022-08-17T09:47:38.227Z,26.58
2022-08-17T09:52:59.166Z,26.41
2022-08-17T09:58:25.648Z,26.52
2022-08-17T10:03:42.445Z,26.49
2022-08-17T10:09:08.846Z,27.06
2022-08-17T10:14:43.549Z,27.85
2022-08-17T10:20:15.132Z,28.30
2022-08-17T10:25:53.946Z,28.36
2022-08-17T10:31:33.557Z,28.66
2022-08-17T10:36:57.618Z,28.88
2022-08-17T10:42:16.061Z,28.60
2022-08-17T10:48:06.104Z,28.39
2022-08-17T10:53:08.785Z,28.12
2022-08-17T10:58:21.896Z,27.94
2022-08-17T11:03:26.603Z,27.99
2022-08-17T11:09:00.869Z,27.97
2022-08-17T11:14:21.743Z,28.03
2022-08-17T11:19:42.117Z,28.15
2022-08-17T11:24:48.239Z,28.42
2022-08-17T11:30:01.529Z,28.90
2022-08-17T11:35:22.418Z,28.93
2022-08-17T11:40:54.938Z,28.69
2022-08-17T11:46:53.969Z,29.20
2022-08-17T11:52:03.969Z,29.69
2022-08-17T11:57:27.322Z,30.02
2022-08-17T12:02:35.362Z,29.85
2022-08-17T12:07:42.966Z,29.97
2022-08-17T12:12:46.695Z,30.06
2022-08-17T12:17:55.689Z,30.54
2022-08-17T12:23:25.595Z,30.61
2022-08-17T12:28:36.133Z,30.48
2022-08-17T12:33:43.878Z,30.08
2022-08-17T12:38:50.309Z,29.97
2022-08-17T12:43:58.725Z,29.76
2022-08-17T12:49:13.658Z,29.55
2022-08-17T12:54:31.467Z,29.37
2022-08-17T12:59:33.227Z,29.26
2022-08-17T13:04:39.336Z,29.10
2022-08-17T13:09:51.245Z,28.91
2022-08-17T13:14:52.879Z,28.89
2022-08-17T13:19:54.780Z,28.94
2022-08-17T13:25:03.714Z,28.82
2022-08-17T13:30:12.041Z,28.84
2022-08-17T13:35:36.419Z,28.72
2022-08-17T13:40:50.073Z,29.02
2022-08-17T13:45:56.078Z,29.26
2022-08-17T13:50:57.771Z,29.37
2022-08-17T13:56:37.746Z,29.38
2022-08-17T14:01:53.381Z,29.49
2022-08-17T14:07:01.462Z,29.46
2022-08-17T14:12:05.923Z,29.43
2022-08-17T14:17:07.989Z,29.49
2022-08-17T14:22:18.359Z,29.28
2022-08-17T14:27:21.027Z,29.14
2022-08-17T14:32:29.461Z,28.97
2022-08-17T14:37:35.097Z,28.63
2022-08-17T14:43:05.531Z,28.12
2022-08-17T14:48:46.256Z,27.64
2022-08-17T14:53:50.425Z,26.46
2022-08-17T14:58:52.158Z,24.28
2022-08-17T15:03:53.976Z,22.92
2022-08-17T15:09:17.721Z,22.17
2022-08-17T15:14:20.235Z,21.53
2022-08-17T15:19:22.201Z,21.21
2022-08-17T15:24:24.025Z,20.93
2022-08-17T15:29:25.546Z,20.86
2022-08-17T15:34:27.114Z,20.97
2022-08-17T15:39:28.758Z,20.97
2022-08-17T15:44:34.760Z,20.99
2022-08-17T15:49:40.761Z,20.92
2022-08-17T15:54:42.767Z,20.83
2022-08-17T15:59:52.076Z,20.82
2022-08-17T16:05:13.932Z,20.86
2022-08-17T16:10:19.176Z,20.89
2022-08-17T16:15:23.123Z,20.86
2022-08-17T16:20:25.177Z,20.88
2022-08-17T16:25:49.694Z,20.91
2022-08-17T16:30:52.898Z,20.96
2022-08-17T16:36:03.400Z,21.02
2022-08-17T16:41:06.326Z,21.15
2022-08-17T16:46:07.925Z,21.22
2022-08-17T16:51:09.701Z,21.25
2022-08-17T16:56:11.575Z,21.24
2022-08-17T17:01:13.786Z,21.24
2022-08-17T17:06:22.769Z,21.24
2022-08-17T17:11:40.905Z,21.23
2022-08-17T17:16:57.597Z,21.20
2022-08-17T17:22:12.574Z,21.17
2022-08-17T17:27:47.575Z,21.17
2022-08-17T17:33:13.592Z,21.11
2022-08-17T17:38:29.195Z,21.09
2022-08-17T17:43:40.599Z,21.07
2022-08-17T17:48:42.580Z,21.10
2022-08-17T17:53:59.436Z,21.04
2022-08-17T17:59:26.637Z,20.94
2022-08-17T18:04:58.752Z,20.82
2022-08-17T18:10:19.427Z,20.76
2022-08-17T18:15:29.527Z,20.76
2022-08-17T18:20:43.242Z,20.75
2022-08-17T18:25:54.461Z,20.66
2022-08-17T18:31:07.876Z,20.57
2022-08-17T18:36:11.354Z,20.51
2022-08-17T18:41:30.267Z,20.48
2022-08-17T18:46:36.576Z,20.42
2022-08-17T18:51:43.191Z,20.34
2022-08-17T18:57:00.775Z,20.23
2022-08-17T19:02:20.737Z,20.21
2022-08-17T19:07:48.196Z,20.13
2022-08-17T19:35:05.971Z,20.09
2022-08-17T19:40:29.261Z,20.06
2022-08-17T19:45:56.925Z,19.99
2022-08-17T19:51:09.161Z,20.00
2022-08-17T19:56:25.618Z,19.92
2022-08-17T20:01:39.845Z,19.90
2022-08-17T20:06:46.664Z,19.88
2022-08-17T20:11:58.551Z,19.76
2022-08-17T20:17:03.026Z,19.76
2022-08-17T20:22:17.487Z,19.70
2022-08-17T20:27:29.512Z,19.64
2022-08-17T20:32:53.681Z,19.66
2022-08-17T20:37:59.105Z,19.66
2022-08-17T20:43:29.613Z,19.66
2022-08-17T20:48:39.856Z,19.68
2022-08-17T20:53:48.024Z,19.66
2022-08-17T20:58:49.638Z,19.65
2022-08-17T21:03:52.648Z,19.68
2022-08-17T21:09:15.744Z,19.63
2022-08-17T21:14:43.057Z,19.57
2022-08-17T21:20:11.923Z,19.56
2022-08-17T21:25:41.772Z,19.56
2022-08-17T21:30:49.044Z,19.52
2022-08-17T21:35:52.260Z,19.50
2022-08-17T21:40:55.058Z,19.48
2022-08-17T21:46:01.039Z,19.41
2022-08-17T21:51:17.641Z,19.35
2022-08-17T21:56:30.216Z,19.34
2022-08-17T22:01:34.644Z,19.33
2022-08-17T22:06:41.222Z,19.27
2022-08-17T22:12:02.111Z,19.16
2022-08-17T22:17:21.053Z,19.12
2022-08-17T22:22:31.190Z,19.08
2022-08-17T22:27:46.298Z,19.04
2022-08-17T22:32:49.259Z,19.00
2022-08-17T22:37:51.640Z,18.95
2022-08-17T22:42:53.496Z,18.93
2022-08-17T22:48:01.948Z,18.88
2022-08-17T22:53:34.041Z,18.87
2022-08-17T22:59:02.347Z,18.82
2022-08-17T23:04:11.547Z,18.79
2022-08-17T23:09:13.183Z,18.66
2022-08-17T23:14:15.819Z,18.48
2022-08-17T23:19:20.863Z,18.37
2022-08-17T23:24:26.177Z,18.38
2022-08-17T23:29:29.389Z,18.27
2022-08-17T23:34:31.192Z,18.15
2022-08-17T23:39:32.957Z,18.03
2022-08-17T23:44:36.970Z,17.94
2022-08-17T23:49:40.288Z,17.91
2022-08-17T23:54:46.409Z,17.96
2022-08-17T23:59:48.736Z,18.06
